createdAt,value
2019-05-11T00:01:50.096Z,9.33
2019-05-11T00:04:18.334Z,9.98
2019-05-11T00:06:46.819Z,9.73
2019-05-11T00:09:15.198Z,8.85
2019-05-11T00:11:43.604Z,8.28
2019-05-11T00:14:11.939Z,9.78
2019-05-11T00:16:40.265Z,8.95
2019-05-11T00:19:08.551Z,8.93
2019-05-11T00:21:36.959Z,9.58
2019-05-11T00:24:05.230Z,10.00
2019-05-11T00:26:33.586Z,9.30
2019-05-11T00:29:01.942Z,10.18
2019-05-11T00:31:30.314Z,10.55
2019-05-11T00:33:58.785Z,9.35
2019-05-11T00:36:27.080Z,11.70
2019-05-11T00:38:55.391Z,13.72
2019-05-11T00:41:23.709Z,10.10
2019-05-11T00:43:52.003Z,9.08
2019-05-11T00:46:20.225Z,8.63
2019-05-11T00:48:48.707Z,7.90
2019-05-11T00:51:17.102Z,6.75
2019-05-11T00:53:45.451Z,8.88
2019-05-11T00:56:13.762Z,7.40
2019-05-11T00:58:42.176Z,8.65
2019-05-11T01:01:10.713Z,9.95
2019-05-11T01:03:39.023Z,7.62
2019-05-11T01:06:07.301Z,7.30
2019-05-11T01:08:35.543Z,6.42
2019-05-11T01:11:03.878Z,6.35
2019-05-11T01:13:32.265Z,6.50
2019-05-11T01:16:00.576Z,6.62
2019-05-11T01:18:28.902Z,7.12
2019-05-11T01:20:57.225Z,6.33
2019-05-11T01:23:25.599Z,8.18
2019-05-11T01:25:53.894Z,8.08
2019-05-11T01:28:22.336Z,7.53
2019-05-11T01:30:50.772Z,8.08
2019-05-11T01:33:19.259Z,5.72
2019-05-11T01:35:50.980Z,5.85
2019-05-11T01:38:17.535Z,5.35
2019-05-11T01:40:58.123Z,5.55
2019-05-11T01:43:15.751Z,6.37
2019-05-11T01:45:43.990Z,5.95
2019-05-11T01:48:12.282Z,6.20
2019-05-11T01:50:40.502Z,5.33
2019-05-11T01:53:08.813Z,5.30
2019-05-11T01:55:37.121Z,6.60
2019-05-11T01:58:05.406Z,4.58
2019-05-11T02:00:34.983Z,6.33
2019-05-11T02:03:03.285Z,5.97
2019-05-11T02:05:31.659Z,4.72
2019-05-11T02:08:00.849Z,6.53
2019-05-11T02:10:29.446Z,5.80
2019-05-11T02:12:57.808Z,7.22
2019-05-11T02:15:26.288Z,5.25
2019-05-11T02:17:54.637Z,5.15
2019-05-11T02:20:22.933Z,5.17
2019-05-11T02:22:51.212Z,6.78
2019-05-11T02:25:19.521Z,6.78
2019-05-11T02:27:47.831Z,5.25
2019-05-11T02:30:16.200Z,4.75
2019-05-11T02:32:44.484Z,4.60
2019-05-11T02:35:13.866Z,6.45
2019-05-11T02:37:42.178Z,5.35
2019-05-11T02:40:10.788Z,5.17
2019-05-11T02:42:39.500Z,5.28
2019-05-11T02:45:07.971Z,4.33
2019-05-11T02:47:36.386Z,4.58
2019-05-11T02:50:07.428Z,4.83
2019-05-11T02:52:36.206Z,7.03
2019-05-11T02:55:05.208Z,5.72
2019-05-11T02:57:33.479Z,4.70
2019-05-11T03:00:01.857Z,4.83
2019-05-11T03:02:30.341Z,4.22
2019-05-11T03:04:58.634Z,4.20
2019-05-11T03:07:27.037Z,6.67
2019-05-11T03:09:55.324Z,4.75
2019-05-11T03:12:23.767Z,4.40
2019-05-11T03:14:52.259Z,5.22
2019-05-11T03:17:22.314Z,4.33
2019-05-11T03:19:50.685Z,4.15
2019-05-11T03:22:18.974Z,4.60
2019-05-11T03:24:47.266Z,4.85
2019-05-11T03:27:15.580Z,4.97
2019-05-11T03:29:43.866Z,4.87
2019-05-11T03:32:12.165Z,4.85
2019-05-11T03:34:40.424Z,4.10
2019-05-11T03:37:08.719Z,4.62
2019-05-11T03:39:37.011Z,4.67
2019-05-11T03:42:14.667Z,3.58
2019-05-11T03:44:35.210Z,5.03
2019-05-11T03:47:03.499Z,4.75
2019-05-11T03:49:31.762Z,3.85
2019-05-11T03:51:59.971Z,7.03
2019-05-11T03:54:28.330Z,3.85
2019-05-11T03:56:56.598Z,6.40
2019-05-11T03:59:24.829Z,6.53
2019-05-11T04:01:53.120Z,6.08
2019-05-11T04:04:21.314Z,4.30
2019-05-11T04:06:49.565Z,4.60
2019-05-11T04:09:17.773Z,4.08
2019-05-11T04:11:46.160Z,4.05
2019-05-11T04:14:14.444Z,4.00
2019-05-11T04:16:42.725Z,4.37
2019-05-11T04:19:11.049Z,5.20
2019-05-11T04:21:39.429Z,3.98
2019-05-11T04:24:07.822Z,4.53
2019-05-11T04:26:36.146Z,3.72
2019-05-11T04:29:04.527Z,5.03
2019-05-11T04:31:32.752Z,5.03
2019-05-11T04:34:01.038Z,4.75
2019-05-11T04:36:29.365Z,4.10
2019-05-11T04:38:57.560Z,4.03
2019-05-11T04:41:25.818Z,4.20
2019-05-11T04:43:54.206Z,4.55
2019-05-11T04:46:22.676Z,5.85
2019-05-11T04:48:51.168Z,5.78
2019-05-11T04:51:19.626Z,3.87
2019-05-11T04:53:47.952Z,3.58
2019-05-11T04:56:16.381Z,3.95
2019-05-11T04:58:44.818Z,6.12
2019-05-11T05:01:13.321Z,5.20
2019-05-11T05:03:47.432Z,4.42
2019-05-11T05:06:22.021Z,4.20
2019-05-11T05:08:41.577Z,7.45
2019-05-11T05:11:09.766Z,4.97
2019-05-11T05:13:37.956Z,4.90
2019-05-11T05:16:06.273Z,6.45
2019-05-11T05:18:34.539Z,4.92
2019-05-11T05:21:02.853Z,3.95
2019-05-11T05:23:31.069Z,4.47
2019-05-11T05:25:59.487Z,4.45
2019-05-11T05:28:27.701Z,4.72
2019-05-11T05:30:56.216Z,5.00
2019-05-11T05:33:24.719Z,5.67
2019-05-11T05:35:53.182Z,6.37
2019-05-11T05:38:21.676Z,5.92
2019-05-11T05:40:50.045Z,4.28
2019-05-11T05:43:28.134Z,4.60
2019-05-11T05:45:48.489Z,5.17
2019-05-11T05:48:16.816Z,4.15
2019-05-11T05:50:45.106Z,5.37
2019-05-11T05:53:14.560Z,5.70
2019-05-11T05:55:42.908Z,4.50
2019-05-11T05:58:11.253Z,4.60
2019-05-11T06:00:40.678Z,4.85
2019-05-11T06:03:08.995Z,5.33
2019-05-11T06:05:37.284Z,5.90
2019-05-11T06:08:05.704Z,5.08
2019-05-11T06:10:34.065Z,5.03
2019-05-11T06:13:02.391Z,6.28
2019-05-11T06:15:30.884Z,5.03
2019-05-11T06:18:00.560Z,8.33
2019-05-11T06:20:29.313Z,5.67
2019-05-11T06:22:57.742Z,9.98
2019-05-11T06:25:26.206Z,6.60
2019-05-11T06:27:54.639Z,6.85
2019-05-11T06:30:23.108Z,7.30
2019-05-11T06:32:51.585Z,7.00
2019-05-11T06:35:22.516Z,6.42
2019-05-11T06:37:50.125Z,6.33
2019-05-11T06:40:18.516Z,6.80
2019-05-11T06:42:46.995Z,8.13
2019-05-11T06:45:15.385Z,6.20
2019-05-11T06:47:43.845Z,7.17
2019-05-11T06:50:12.647Z,11.08
2019-05-11T06:52:41.144Z,9.35
2019-05-11T06:55:10.203Z,7.22
2019-05-11T06:57:38.519Z,7.97
2019-05-11T07:00:06.953Z,7.42
2019-05-11T07:02:35.262Z,8.10
2019-05-11T07:05:04.167Z,6.12
2019-05-11T07:07:46.511Z,8.15
2019-05-11T07:10:02.663Z,7.33
2019-05-11T07:12:30.932Z,6.90
2019-05-11T07:14:59.239Z,6.65
2019-05-11T07:17:27.450Z,7.45
2019-05-11T07:19:55.866Z,6.80
2019-05-11T07:22:24.163Z,9.83
2019-05-11T07:24:52.482Z,12.35
2019-05-11T07:27:20.774Z,9.30
2019-05-11T07:29:49.171Z,10.05
2019-05-11T07:32:24.974Z,9.18
2019-05-11T07:34:48.692Z,11.28
2019-05-11T07:37:18.506Z,11.43
2019-05-11T07:39:48.747Z,13.13
2019-05-11T07:42:18.082Z,9.70
2019-05-11T07:44:48.106Z,11.18
2019-05-11T07:47:18.731Z,14.03
2019-05-11T07:49:48.712Z,17.45
2019-05-11T07:52:18.198Z,11.03
2019-05-11T07:54:52.024Z,9.55
2019-05-11T07:57:18.577Z,10.90
2019-05-11T07:59:48.494Z,9.18
2019-05-11T08:02:17.759Z,9.63
2019-05-11T08:04:48.127Z,9.98
2019-05-11T08:07:18.085Z,9.25
2019-05-11T08:09:48.204Z,9.88
2019-05-11T08:12:16.094Z,9.53
2019-05-11T08:14:56.641Z,10.98
2019-05-11T08:17:14.484Z,8.18
2019-05-11T08:19:42.738Z,10.25
2019-05-11T08:22:22.737Z,9.88
2019-05-11T08:25:03.689Z,8.35
2019-05-11T08:27:37.627Z,8.23
2019-05-11T08:30:13.141Z,9.25
2019-05-11T08:32:49.286Z,10.78
2019-05-11T08:35:22.587Z,11.60
2019-05-11T08:37:58.223Z,13.13
2019-05-11T08:40:28.867Z,13.93
2019-05-11T08:42:58.325Z,11.08
2019-05-11T08:45:28.058Z,12.43
2019-05-11T08:47:57.951Z,13.53
2019-05-11T08:50:27.894Z,19.75
2019-05-11T08:52:58.167Z,12.90
2019-05-11T08:55:29.015Z,15.95
2019-05-11T08:57:58.572Z,16.73
2019-05-11T09:00:28.772Z,11.88
2019-05-11T09:02:58.308Z,11.38
2019-05-11T09:05:28.004Z,14.00
2019-05-11T09:07:57.762Z,13.20
2019-05-11T09:10:28.297Z,10.32
2019-05-11T09:12:59.107Z,9.28
2019-05-11T09:15:36.627Z,10.58
2019-05-11T09:18:00.459Z,9.88
2019-05-11T09:20:29.147Z,10.13
2019-05-11T09:22:58.897Z,9.68
2019-05-11T09:25:27.809Z,10.60
2019-05-11T09:27:58.513Z,9.95
2019-05-11T09:30:26.175Z,8.78
2019-05-11T09:32:54.723Z,8.53
2019-05-11T09:35:24.373Z,8.40
2019-05-11T09:37:52.898Z,9.45
2019-05-11T09:40:23.120Z,9.40
2019-05-11T09:42:52.030Z,8.23
2019-05-11T09:45:23.953Z,10.20
2019-05-11T09:47:55.138Z,13.10
2019-05-11T09:50:23.655Z,7.58
2019-05-11T09:52:52.153Z,10.53
2019-05-11T09:55:22.727Z,10.32
2019-05-11T09:57:51.049Z,7.65
2019-05-11T10:00:20.692Z,7.85
2019-05-11T10:02:49.530Z,9.28
2019-05-11T10:05:18.814Z,8.73
2019-05-11T10:07:49.525Z,11.53
2019-05-11T10:10:20.125Z,12.25
2019-05-11T10:12:55.927Z,9.00
2019-05-11T10:15:21.685Z,9.95
2019-05-11T10:17:52.678Z,9.78
2019-05-11T10:20:22.153Z,10.32
2019-05-11T10:22:50.601Z,11.63
2019-05-11T10:25:21.276Z,13.35
2019-05-11T10:27:51.423Z,10.10
2019-05-11T10:30:22.677Z,9.03
2019-05-11T10:32:58.418Z,7.90
2019-05-11T10:35:28.802Z,10.53
2019-05-11T10:37:58.270Z,8.90
2019-05-11T10:40:28.107Z,7.33
2019-05-11T10:42:59.020Z,8.75
2019-05-11T10:45:28.523Z,9.28
2019-05-11T10:48:00.962Z,8.20
2019-05-11T10:50:28.943Z,9.48
2019-05-11T10:52:59.039Z,9.13
2019-05-11T10:55:28.154Z,9.23
2019-05-11T10:57:58.098Z,9.08
2019-05-11T11:00:28.816Z,9.75
2019-05-11T11:02:58.478Z,8.10
2019-05-11T11:05:27.892Z,8.43
2019-05-11T11:07:58.660Z,7.10
2019-05-11T11:10:28.656Z,7.65
2019-05-11T11:12:57.819Z,7.22
2019-05-11T11:15:28.634Z,6.33
2019-05-11T11:17:57.903Z,7.78
2019-05-11T11:20:28.032Z,8.48
2019-05-11T11:22:58.325Z,6.92
2019-05-11T11:25:28.183Z,6.75
2019-05-11T11:27:57.867Z,6.55
2019-05-11T11:30:28.411Z,8.35
2019-05-11T11:32:58.573Z,7.40
2019-05-11T11:35:27.892Z,7.80
2019-05-11T11:37:58.314Z,8.03
2019-05-11T11:40:28.143Z,8.00
2019-05-11T11:42:58.312Z,8.90
2019-05-11T11:45:28.594Z,7.53
2019-05-11T11:47:58.018Z,8.95
2019-05-11T11:50:28.368Z,5.90
2019-05-11T11:52:57.840Z,7.45
2019-05-11T11:55:28.773Z,9.53
2019-05-11T11:57:58.622Z,6.70
2019-05-11T12:00:28.143Z,6.80
2019-05-11T12:02:58.012Z,6.85
2019-05-11T12:05:28.091Z,6.33
2019-05-11T12:07:57.991Z,6.12
2019-05-11T12:10:28.657Z,5.92
2019-05-11T12:12:58.144Z,6.72
2019-05-11T12:15:28.274Z,6.25
2019-05-11T12:17:58.739Z,5.40
2019-05-11T12:20:28.630Z,6.08
2019-05-11T12:22:58.107Z,5.55
2019-05-11T12:25:27.786Z,5.67
2019-05-11T12:27:57.746Z,5.05
2019-05-11T12:30:28.362Z,7.75
2019-05-11T12:32:57.722Z,5.37
2019-05-11T12:35:28.497Z,6.58
2019-05-11T12:37:58.751Z,5.78
2019-05-11T12:40:28.290Z,7.47
2019-05-11T12:42:58.397Z,6.10
2019-05-11T12:45:26.797Z,6.25
2019-05-11T12:47:55.522Z,6.10
2019-05-11T12:50:24.217Z,7.58
2019-05-11T12:52:52.560Z,7.30
2019-05-11T12:55:21.284Z,7.58
2019-05-11T12:57:49.664Z,6.50
2019-05-11T13:00:18.353Z,6.83
2019-05-11T13:02:48.519Z,7.90
2019-05-11T13:05:18.022Z,8.28
2019-05-11T13:07:48.114Z,8.70
2019-05-11T13:10:17.728Z,9.20
2019-05-11T13:12:46.327Z,9.28
2019-05-11T13:15:14.773Z,15.88
2019-05-11T13:17:44.953Z,13.80
2019-05-11T13:20:28.512Z,9.53
2019-05-11T13:22:58.786Z,8.43
2019-05-11T13:25:28.275Z,8.15
2019-05-11T13:27:58.080Z,7.70
2019-05-11T13:30:27.928Z,8.50
2019-05-11T13:33:08.575Z,8.33
2019-05-11T13:35:40.617Z,6.30
2019-05-11T13:38:10.009Z,5.72
2019-05-11T13:40:40.215Z,6.05
2019-05-11T13:43:09.967Z,5.62
2019-05-11T13:45:38.779Z,5.53
2019-05-11T13:48:08.408Z,6.10
2019-05-11T13:50:38.690Z,10.78
2019-05-11T13:53:07.760Z,6.35
2019-05-11T13:55:38.575Z,5.20
2019-05-11T13:58:08.144Z,5.97
2019-05-11T14:00:39.273Z,6.50
2019-05-11T14:03:29.680Z,5.83
2019-05-11T14:06:01.585Z,7.87
2019-05-11T14:08:30.127Z,6.70
2019-05-11T14:10:58.481Z,7.47
2019-05-11T14:13:28.637Z,4.55
2019-05-11T14:15:58.744Z,3.58
2019-05-11T14:18:28.381Z,3.40
2019-05-11T14:20:58.613Z,3.67
2019-05-11T14:23:31.068Z,3.58
2019-05-11T14:25:57.662Z,4.35
2019-05-11T14:28:27.915Z,4.87
2019-05-11T14:30:57.947Z,4.72
2019-05-11T14:33:28.276Z,5.12
2019-05-11T14:35:57.864Z,5.70
2019-05-11T14:38:28.904Z,4.55
2019-05-11T14:40:58.568Z,5.08
2019-05-11T14:43:27.700Z,4.00
2019-05-11T14:45:59.081Z,4.05
2019-05-11T14:48:30.054Z,3.60
2019-05-11T14:50:59.279Z,3.80
2019-05-11T14:53:28.350Z,4.12
2019-05-11T14:55:58.468Z,4.92
2019-05-11T14:58:28.027Z,4.72
2019-05-11T15:00:58.280Z,5.30
2019-05-11T15:03:28.610Z,5.20
2019-05-11T15:05:58.169Z,5.50
2019-05-11T15:08:28.472Z,4.58
2019-05-11T15:10:57.662Z,3.95
2019-05-11T15:13:26.100Z,3.67
2019-05-11T15:15:54.450Z,2.92
2019-05-11T15:21:28.083Z,3.70
2019-05-11T15:26:57.582Z,4.25
2019-05-11T15:29:37.787Z,4.72
2019-05-11T15:32:11.579Z,4.35
2019-05-11T15:46:19.830Z,4.30
2019-05-11T15:48:58.750Z,4.37
2019-05-11T15:51:41.345Z,6.92
2019-05-11T15:54:19.489Z,4.42
2019-05-11T15:56:49.238Z,5.30
2019-05-11T15:59:17.580Z,5.33
2019-05-11T16:01:45.971Z,5.58
2019-05-11T16:04:17.975Z,4.95
2019-05-11T16:06:45.819Z,4.92
2019-05-11T16:09:14.162Z,7.40
2019-05-11T16:11:42.465Z,5.87
2019-05-11T16:14:10.743Z,5.50
2019-05-11T16:16:39.368Z,6.10
2019-05-11T16:19:14.470Z,5.78
2019-05-11T16:21:38.397Z,7.08
2019-05-11T16:24:07.980Z,5.72
2019-05-11T16:26:36.635Z,5.65
2019-05-11T16:29:04.999Z,5.60
2019-05-11T16:31:33.825Z,7.03
2019-05-11T16:34:07.836Z,6.15
2019-05-11T16:36:38.990Z,6.03
2019-05-11T16:39:10.449Z,6.30
2019-05-11T16:41:54.048Z,7.50
2019-05-11T16:44:26.401Z,8.78
2019-05-11T16:46:59.164Z,8.88
2019-05-11T16:49:32.409Z,10.68
2019-05-11T16:52:00.687Z,7.72
2019-05-11T16:54:31.171Z,8.00
2019-05-11T16:57:01.516Z,8.28
2019-05-11T16:59:31.742Z,7.97
2019-05-11T17:02:00.533Z,7.58
2019-05-11T17:04:31.273Z,7.53
2019-05-11T17:06:59.250Z,7.55
2019-05-11T17:09:27.648Z,9.85
2019-05-11T17:11:57.870Z,8.90
2019-05-11T17:14:28.186Z,9.95
2019-05-11T17:16:58.429Z,9.85
2019-05-11T17:19:42.195Z,9.88
2019-05-11T17:21:56.363Z,9.95
2019-05-11T17:24:48.595Z,11.78
2019-05-11T17:27:18.809Z,12.20
2019-05-11T17:30:19.113Z,10.30
2019-05-11T17:32:49.512Z,9.60
2019-05-11T17:35:24.744Z,10.40
2019-05-11T17:37:53.111Z,8.70
2019-05-11T17:40:23.555Z,8.60
2019-05-11T17:42:53.980Z,8.08
2019-05-11T17:45:21.353Z,9.38
2019-05-11T17:47:49.667Z,7.92
2019-05-11T17:50:19.099Z,5.90
2019-05-11T17:52:48.126Z,5.28
2019-05-11T17:55:18.541Z,8.13
2019-05-11T17:57:49.583Z,5.62
2019-05-11T18:00:19.808Z,3.52
2019-05-11T18:02:49.045Z,3.85
2019-05-11T18:05:17.880Z,4.60
2019-05-11T18:07:46.595Z,3.62
2019-05-11T18:10:14.977Z,3.98
2019-05-11T18:12:43.333Z,4.92
2019-05-11T18:15:11.654Z,6.95
2019-05-11T18:17:40.055Z,4.47
2019-05-11T18:20:17.379Z,3.80
2019-05-11T18:22:39.167Z,3.60
2019-05-11T18:25:08.778Z,4.78
2019-05-11T18:27:38.681Z,3.52
2019-05-11T18:30:09.015Z,3.00
2019-05-11T18:32:39.739Z,2.40
2019-05-11T18:35:09.037Z,2.25
2019-05-11T18:37:38.923Z,2.35
2019-05-11T18:40:07.694Z,3.12
2019-05-11T18:42:38.097Z,2.47
2019-05-11T18:45:08.021Z,2.80
2019-05-11T18:47:38.161Z,2.30
2019-05-11T18:50:06.283Z,2.87
2019-05-11T18:52:34.622Z,3.10
2019-05-11T18:55:02.954Z,2.65
2019-05-11T18:57:31.247Z,2.00
2019-05-11T18:59:59.544Z,2.00
2019-05-11T19:02:27.983Z,3.58
2019-05-11T19:04:58.144Z,2.22
2019-05-11T19:07:28.283Z,2.83
2019-05-11T19:09:57.742Z,1.47
2019-05-11T19:12:27.936Z,2.90
2019-05-11T19:14:58.520Z,2.27
2019-05-11T19:17:28.895Z,1.72
2019-05-11T19:19:58.000Z,2.45
2019-05-11T19:22:28.705Z,2.17
2019-05-11T19:24:58.233Z,1.45
2019-05-11T19:27:28.680Z,3.77
2019-05-11T19:29:57.665Z,1.85
2019-05-11T19:32:28.086Z,2.50
2019-05-11T19:34:58.009Z,2.08
2019-05-11T19:37:27.883Z,2.90
2019-05-11T19:39:57.980Z,3.95
2019-05-11T19:42:28.443Z,1.85
2019-05-11T19:44:57.970Z,7.00
2019-05-11T19:47:28.236Z,2.60
2019-05-11T19:49:58.241Z,2.40
2019-05-11T19:52:28.203Z,3.35
2019-05-11T19:54:57.777Z,3.92
2019-05-11T19:57:28.201Z,4.70
2019-05-11T19:59:58.282Z,5.17
2019-05-11T20:02:28.347Z,4.87
2019-05-11T20:04:58.405Z,4.83
2019-05-11T20:07:25.947Z,5.22
2019-05-11T20:09:54.158Z,5.33
2019-05-11T20:12:22.578Z,6.00
2019-05-11T20:14:50.878Z,6.08
2019-05-11T20:17:19.250Z,3.92
2019-05-11T20:19:49.032Z,4.62
2019-05-11T20:22:17.560Z,4.15
2019-05-11T20:24:47.647Z,5.05
2019-05-11T20:27:18.605Z,4.50
2019-05-11T20:29:47.790Z,5.12
2019-05-11T20:32:18.695Z,5.80
2019-05-11T20:34:49.048Z,4.33
2019-05-11T20:37:18.159Z,5.50
2019-05-11T20:39:48.159Z,5.40
2019-05-11T20:42:18.097Z,5.65
2019-05-11T20:44:46.737Z,3.30
2019-05-11T20:47:17.408Z,3.98
2019-05-11T20:49:45.282Z,4.83
2019-05-11T20:52:13.580Z,5.90
2019-05-11T20:54:41.979Z,7.72
2019-05-11T20:57:10.537Z,13.68
2019-05-11T20:59:38.857Z,8.58
2019-05-11T21:02:09.281Z,8.00
2019-05-11T21:04:39.173Z,12.40
2019-05-11T21:07:08.478Z,8.83
2019-05-11T21:09:37.979Z,8.48
2019-05-11T21:12:08.114Z,12.78
2019-05-11T21:14:38.544Z,31.25
2019-05-11T21:17:08.891Z,16.07
2019-05-11T21:19:38.684Z,11.70
2019-05-11T21:22:08.740Z,10.98
2019-05-11T21:24:36.628Z,14.07
2019-05-11T21:27:04.910Z,16.75
2019-05-11T21:29:33.477Z,14.05
2019-05-11T21:32:01.848Z,11.70
2019-05-11T21:34:30.232Z,22.42
2019-05-11T21:36:58.799Z,20.65
2019-05-11T21:39:28.760Z,20.23
2019-05-11T21:41:58.340Z,13.85
2019-05-11T21:44:27.819Z,16.27
2019-05-11T21:46:56.307Z,30.27
2019-05-11T21:49:25.625Z,21.33
2019-05-11T21:52:04.095Z,19.70
2019-05-11T21:54:24.946Z,15.80
2019-05-11T21:56:53.407Z,24.07
2019-05-11T21:59:21.722Z,23.57
2019-05-11T22:01:50.268Z,30.27
2019-05-11T22:04:19.262Z,17.48
2019-05-11T22:06:48.336Z,21.77
2019-05-11T22:09:18.559Z,23.60
2019-05-11T22:11:48.715Z,22.98
2019-05-11T22:14:17.188Z,24.72
2019-05-11T22:16:47.888Z,27.73
2019-05-11T22:19:17.747Z,17.23
2019-05-11T22:21:49.462Z,17.75
2019-05-11T22:24:17.926Z,23.40
2019-05-11T22:26:46.519Z,18.65
2019-05-11T22:29:14.774Z,15.90
2019-05-11T22:31:43.174Z,20.95
2019-05-11T22:34:11.595Z,23.98
2019-05-11T22:36:39.959Z,18.27
2019-05-11T22:39:08.470Z,25.10
2019-05-11T22:41:39.395Z,20.45
2019-05-11T22:44:07.749Z,18.70
2019-05-11T22:46:38.512Z,33.00
2019-05-11T22:49:08.457Z,29.57
2019-05-11T22:51:36.887Z,25.97
2019-05-11T22:54:05.261Z,26.48
2019-05-11T22:56:33.856Z,25.40
2019-05-11T22:59:02.217Z,27.32
2019-05-11T23:01:30.708Z,20.30
2019-05-11T23:03:58.989Z,25.35
2019-05-11T23:06:27.457Z,22.58
2019-05-11T23:08:55.957Z,24.80
2019-05-11T23:11:24.320Z,19.67
2019-05-11T23:13:53.734Z,23.40
2019-05-11T23:16:22.107Z,16.60
2019-05-11T23:18:50.405Z,18.50
2019-05-11T23:21:18.811Z,23.05
2019-05-11T23:23:47.814Z,17.27
2019-05-11T23:26:17.801Z,21.23
2019-05-11T23:28:48.521Z,26.42
2019-05-11T23:31:16.282Z,17.05
2019-05-11T23:33:44.664Z,20.10
2019-05-11T23:36:13.028Z,25.10
2019-05-11T23:38:41.502Z,15.95
2019-05-11T23:41:23.422Z,17.55
2019-05-11T23:43:39.804Z,15.68
2019-05-11T23:46:08.415Z,24.12
2019-05-11T23:48:38.558Z,16.87
2019-05-11T23:51:08.772Z,19.67
2019-05-11T23:53:38.788Z,31.87
2019-05-11T23:56:06.797Z,15.23
2019-05-11T23:58:35.070Z,18.75
